![]() |
EMODnet Physics ERDDAP
Easier access to scientific data |
log in|
Brought to you by EMODnet Physics |
| Dataset Title: | NDBC - Collection of dew point temperature (DEWT) TimeSeries - IN SITU MultiPointTimeSeriesObservation
|
| Institution: | NDBC (Dataset ID: TS_DEWT_NDBC) |
| Information: | Summary
| License
| FGDC
| ISO 19115
| Metadata
| Background
| Subset
| Data Access Form
| Make a graph
|
| Name | Last modified | Size | Description | |
|---|---|---|---|---|
| Parent Directory | - | - | ||
| 44020_TS_DEWT_012010.nc | 23-Dec-2024 11:03 | 1670567 | ||
| 44020_TS_DEWT_012011.nc | 23-Dec-2024 11:06 | 4721762 | ||
| 44020_TS_DEWT_012013.nc | 23-Dec-2024 11:11 | 1834571 | ||
| 44020_TS_DEWT_012015.nc | 23-Dec-2024 11:16 | 1626200 | ||
| 44020_TS_DEWT_012016.nc | 23-Dec-2024 11:19 | 1631742 | ||
| 44020_TS_DEWT_012017.nc | 23-Dec-2024 11:21 | 1833289 | ||
| 44020_TS_DEWT_012019.nc | 23-Dec-2024 11:29 | 1816864 | ||
| 44020_TS_DEWT_012020.nc | 23-Dec-2024 11:34 | 1667962 | ||
| 44020_TS_DEWT_012025.nc | 07-Feb-2025 09:26 | 1830422 | ||
| 44020_TS_DEWT_012026.nc | 02-Feb-2026 16:45 | 1674696 | ||
| 44020_TS_DEWT_022010.nc | 23-Dec-2024 11:03 | 1822399 | ||
| 44020_TS_DEWT_022011.nc | 23-Dec-2024 11:06 | 5942712 | ||
| 44020_TS_DEWT_022013.nc | 23-Dec-2024 11:11 | 1667026 | ||
| 44020_TS_DEWT_022015.nc | 23-Dec-2024 11:16 | 1289771 | ||
| 44020_TS_DEWT_022016.nc | 23-Dec-2024 11:19 | 1633081 | ||
| 44020_TS_DEWT_022017.nc | 23-Dec-2024 11:22 | 1674383 | ||
| 44020_TS_DEWT_022019.nc | 23-Dec-2024 11:29 | 1653267 | ||
| 44020_TS_DEWT_022020.nc | 23-Dec-2024 11:34 | 1654190 | ||
| 44020_TS_DEWT_022025.nc | 01-Mar-2025 06:06 | 1668862 | ||
| 44020_TS_DEWT_022026.nc | 01-Mar-2026 05:18 | 1667347 | ||
| 44020_TS_DEWT_032009.nc | 23-Dec-2024 11:01 | 1674905 | ||
| 44020_TS_DEWT_032010.nc | 23-Dec-2024 11:04 | 4927234 | ||
| 44020_TS_DEWT_032011.nc | 23-Dec-2024 11:06 | 1825696 | ||
| 44020_TS_DEWT_032013.nc | 23-Dec-2024 11:11 | 1296550 | ||
| 44020_TS_DEWT_032014.nc | 23-Dec-2024 11:14 | 1620875 | ||
| 44020_TS_DEWT_032015.nc | 23-Dec-2024 11:17 | 1822395 | ||
| 44020_TS_DEWT_032016.nc | 23-Dec-2024 11:19 | 1804258 | ||
| 44020_TS_DEWT_032017.nc | 23-Dec-2024 11:22 | 1004819 | ||
| 44020_TS_DEWT_032019.nc | 23-Dec-2024 11:30 | 1798907 | ||
| 44020_TS_DEWT_032025.nc | 02-Apr-2025 04:43 | 1822524 | ||
| 44020_TS_DEWT_032026.nc | 07-Mar-2026 04:48 | 1828398 | ||
| 44020_TS_DEWT_042009.nc | 23-Dec-2024 11:01 | 4745231 | ||
| 44020_TS_DEWT_042010.nc | 23-Dec-2024 11:04 | 1827436 | ||
| 44020_TS_DEWT_042011.nc | 23-Dec-2024 11:06 | 1271368 | ||
| 44020_TS_DEWT_042013.nc | 23-Dec-2024 11:12 | 1662178 | ||
| 44020_TS_DEWT_042014.nc | 23-Dec-2024 11:14 | 1830590 | ||
| 44020_TS_DEWT_042015.nc | 23-Dec-2024 11:17 | 1666548 | ||
| 44020_TS_DEWT_042016.nc | 23-Dec-2024 11:19 | 1623730 | ||
| 44020_TS_DEWT_042019.nc | 23-Dec-2024 11:30 | 1817433 | ||
| 44020_TS_DEWT_042025.nc | 01-May-2025 03:52 | 1671840 | ||
| 44020_TS_DEWT_052009.nc | 23-Dec-2024 11:01 | 1827978 | ||
| 44020_TS_DEWT_052011.nc | 23-Dec-2024 11:07 | 5628366 | ||
| 44020_TS_DEWT_052013.nc | 23-Dec-2024 11:12 | 1641894 | ||
| 44020_TS_DEWT_052014.nc | 23-Dec-2024 11:14 | 1665060 | ||
| 44020_TS_DEWT_052015.nc | 23-Dec-2024 11:17 | 1638574 | ||
| 44020_TS_DEWT_052016.nc | 23-Dec-2024 11:20 | 1675295 | ||
| 44020_TS_DEWT_052018.nc | 23-Dec-2024 11:25 | 1668461 | ||
| 44020_TS_DEWT_052019.nc | 23-Dec-2024 11:30 | 1648798 | ||
| 44020_TS_DEWT_052020.nc | 23-Dec-2024 11:35 | 1491543 | ||
| 44020_TS_DEWT_052025.nc | 01-Jun-2025 03:54 | 1673717 | ||
| 44020_TS_DEWT_062009.nc | 23-Dec-2024 11:02 | 1676826 | ||
| 44020_TS_DEWT_062011.nc | 23-Dec-2024 11:07 | 4599724 | ||
| 44020_TS_DEWT_062012.nc | 23-Dec-2024 11:09 | 1666232 | ||
| 44020_TS_DEWT_062013.nc | 23-Dec-2024 11:12 | 1654633 | ||
| 44020_TS_DEWT_062014.nc | 23-Dec-2024 11:15 | 1818671 | ||
| 44020_TS_DEWT_062015.nc | 23-Dec-2024 11:17 | 1829316 | ||
| 44020_TS_DEWT_062016.nc | 23-Dec-2024 11:20 | 1821396 | ||
| 44020_TS_DEWT_062018.nc | 23-Dec-2024 11:25 | 1659107 | ||
| 44020_TS_DEWT_062019.nc | 23-Dec-2024 11:31 | 1830879 | ||
| 44020_TS_DEWT_062020.nc | 23-Dec-2024 11:35 | 1743025 | ||
| 44020_TS_DEWT_062021.nc | 23-Dec-2024 11:40 | 1521996 | ||
| 44020_TS_DEWT_062023.nc | 23-Dec-2024 11:51 | 5592961 | ||
| 44020_TS_DEWT_062025.nc | 01-Jul-2025 03:54 | 1643789 | ||
| 44020_TS_DEWT_072009.nc | 23-Dec-2024 11:02 | 1622859 | ||
| 44020_TS_DEWT_072010.nc | 23-Dec-2024 11:04 | 1653053 | ||
| 44020_TS_DEWT_072011.nc | 23-Dec-2024 11:07 | 1668935 | ||
| 44020_TS_DEWT_072012.nc | 23-Dec-2024 11:10 | 1667843 | ||
| 44020_TS_DEWT_072013.nc | 23-Dec-2024 11:12 | 1651383 | ||
| 44020_TS_DEWT_072014.nc | 23-Dec-2024 11:15 | 1669131 | ||
| 44020_TS_DEWT_072015.nc | 23-Dec-2024 11:17 | 1514652 | ||
| 44020_TS_DEWT_072016.nc | 23-Dec-2024 11:20 | 1640926 | ||
| 44020_TS_DEWT_072018.nc | 23-Dec-2024 11:26 | 5945369 | ||
| 44020_TS_DEWT_072019.nc | 23-Dec-2024 11:31 | 1628495 | ||
| 44020_TS_DEWT_072020.nc | 23-Dec-2024 11:36 | 1637227 | ||
| 44020_TS_DEWT_072023.nc | 23-Dec-2024 11:51 | 1840625 | ||
| 44020_TS_DEWT_072025.nc | 01-Aug-2025 04:00 | 1827834 | ||
| 44020_TS_DEWT_082009.nc | 23-Dec-2024 11:02 | 1668423 | ||
| 44020_TS_DEWT_082010.nc | 23-Dec-2024 11:05 | 1323746 | ||
| 44020_TS_DEWT_082012.nc | 23-Dec-2024 11:10 | 1831773 | ||
| 44020_TS_DEWT_082013.nc | 23-Dec-2024 11:13 | 1828905 | ||
| 44020_TS_DEWT_082014.nc | 23-Dec-2024 11:15 | 5126846 | ||
| 44020_TS_DEWT_082015.nc | 23-Dec-2024 11:18 | 4953909 | ||
| 44020_TS_DEWT_082016.nc | 23-Dec-2024 11:20 | 1625149 | ||
| 44020_TS_DEWT_082018.nc | 23-Dec-2024 11:26 | 1627689 | ||
| 44020_TS_DEWT_082019.nc | 23-Dec-2024 11:32 | 1627242 | ||
| 44020_TS_DEWT_082023.nc | 23-Dec-2024 11:52 | 1627622 | ||
| 44020_TS_DEWT_082025.nc | 01-Sep-2025 04:08 | 1627426 | ||
| 44020_TS_DEWT_092009.nc | 23-Dec-2024 11:02 | 1626881 | ||
| 44020_TS_DEWT_092010.nc | 23-Dec-2024 11:05 | 1627330 | ||
| 44020_TS_DEWT_092011.nc | 23-Dec-2024 11:07 | 1627332 | ||
| 44020_TS_DEWT_092012.nc | 23-Dec-2024 11:10 | 1625875 | ||
| 44020_TS_DEWT_092013.nc | 23-Dec-2024 11:13 | 1627216 | ||
| 44020_TS_DEWT_092014.nc | 23-Dec-2024 11:15 | 1627327 | ||
| 44020_TS_DEWT_092015.nc | 23-Dec-2024 11:18 | 1626217 | ||
| 44020_TS_DEWT_092016.nc | 23-Dec-2024 11:21 | 1627502 | ||
| 44020_TS_DEWT_092018.nc | 23-Dec-2024 11:27 | 1465412 | ||
| 44020_TS_DEWT_092019.nc | 23-Dec-2024 11:33 | 1627734 | ||
| 44020_TS_DEWT_092023.nc | 23-Dec-2024 11:52 | 1462134 | ||
| 44020_TS_DEWT_092025.nc | 01-Oct-2025 03:45 | 1473676 | ||
| 44020_TS_DEWT_102009.nc | 23-Dec-2024 11:02 | 1470736 | ||
| 44020_TS_DEWT_102010.nc | 23-Dec-2024 11:05 | 1470109 | ||
| 44020_TS_DEWT_102011.nc | 23-Dec-2024 11:08 | 1158649 | ||
| 44020_TS_DEWT_102012.nc | 23-Dec-2024 11:10 | 1474279 | ||
| 44020_TS_DEWT_102014.nc | 23-Dec-2024 11:15 | 1470750 | ||
| 44020_TS_DEWT_102015.nc | 23-Dec-2024 11:18 | 1469650 | ||
| 44020_TS_DEWT_102016.nc | 23-Dec-2024 11:21 | 1470618 | ||
| 44020_TS_DEWT_102018.nc | 23-Dec-2024 11:27 | 1472805 | ||
| 44020_TS_DEWT_102019.nc | 23-Dec-2024 11:33 | 1468121 | ||
| 44020_TS_DEWT_102023.nc | 23-Dec-2024 11:53 | 1470683 | ||
| 44020_TS_DEWT_102024.nc | 12-Jan-2025 20:25 | 1470758 | ||
| 44020_TS_DEWT_102025.nc | 01-Nov-2025 05:21 | 1474087 | ||
| 44020_TS_DEWT_112009.nc | 23-Dec-2024 11:03 | 1470315 | ||
| 44020_TS_DEWT_112010.nc | 23-Dec-2024 11:05 | 1470639 | ||
| 44020_TS_DEWT_112011.nc | 23-Dec-2024 11:08 | 1470172 | ||
| 44020_TS_DEWT_112012.nc | 23-Dec-2024 11:10 | 1478447 | ||
| 44020_TS_DEWT_112013.nc | 23-Dec-2024 11:13 | 1627646 | ||
| 44020_TS_DEWT_112014.nc | 23-Dec-2024 11:16 | 1477799 | ||
| 44020_TS_DEWT_112015.nc | 23-Dec-2024 11:18 | 1625173 | ||
| 44020_TS_DEWT_112016.nc | 23-Dec-2024 11:21 | 1627694 | ||
| 44020_TS_DEWT_112017.nc | 23-Dec-2024 11:23 | 1627353 | ||
| 44020_TS_DEWT_112018.nc | 23-Dec-2024 11:28 | 1627156 | ||
| 44020_TS_DEWT_112019.nc | 23-Dec-2024 11:34 | 1625633 | ||
| 44020_TS_DEWT_112023.nc | 23-Dec-2024 11:53 | 1626214 | ||
| 44020_TS_DEWT_112024.nc | 17-Jan-2025 14:19 | 1627442 | ||
| 44020_TS_DEWT_112025.nc | 01-Dec-2025 05:38 | 1627616 | ||
| 44020_TS_DEWT_122009.nc | 23-Dec-2024 11:03 | 1627406 | ||
| 44020_TS_DEWT_122010.nc | 23-Dec-2024 11:05 | 1627492 | ||
| 44020_TS_DEWT_122011.nc | 23-Dec-2024 11:08 | 1159441 | ||
| 44020_TS_DEWT_122012.nc | 23-Dec-2024 11:11 | 1627426 | ||
| 44020_TS_DEWT_122013.nc | 23-Dec-2024 11:13 | 1627711 | ||
| 44020_TS_DEWT_122014.nc | 23-Dec-2024 11:16 | 1163049 | ||
| 44020_TS_DEWT_122015.nc | 23-Dec-2024 11:19 | 1477730 | ||
| 44020_TS_DEWT_122016.nc | 23-Dec-2024 11:21 | 1474119 | ||
| 44020_TS_DEWT_122018.nc | 23-Dec-2024 11:28 | 1477770 | ||
| 44020_TS_DEWT_122019.nc | 23-Dec-2024 11:34 | 1477690 | ||
| 44020_TS_DEWT_122023.nc | 23-Dec-2024 11:54 | 1477813 | ||
| 44020_TS_DEWT_122024.nc | 22-Jan-2025 16:12 | 1477823 | ||
| 44020_TS_DEWT_122025.nc | 01-Jan-2026 05:48 | 1477876 | ||